sensor_id;sensor_type;location;lat;lon;timestamp;temperature;humidity
56103;DHT22;41970;48.774;9.280;2023-07-20T00:00:29;22.90;78.80
56103;DHT22;41970;48.774;9.280;2023-07-20T00:03:12;23.00;79.20
56103;DHT22;41970;48.774;9.280;2023-07-20T00:05:47;23.00;79.60
56103;DHT22;41970;48.774;9.280;2023-07-20T00:08:13;22.90;80.50
56103;DHT22;41970;48.774;9.280;2023-07-20T00:10:41;22.90;80.30
56103;DHT22;41970;48.774;9.280;2023-07-20T00:13:07;22.90;80.20
56103;DHT22;41970;48.774;9.280;2023-07-20T00:15:33;22.90;79.90
56103;DHT22;41970;48.774;9.280;2023-07-20T00:17:58;22.90;80.30
56103;DHT22;41970;48.774;9.280;2023-07-20T00:20:24;22.90;80.30
56103;DHT22;41970;48.774;9.280;2023-07-20T00:22:51;22.90;79.90
56103;DHT22;41970;48.774;9.280;2023-07-20T00:25:17;22.90;79.80
56103;DHT22;41970;48.774;9.280;2023-07-20T00:27:43;22.90;79.70
56103;DHT22;41970;48.774;9.280;2023-07-20T00:30:09;22.80;79.80
56103;DHT22;41970;48.774;9.280;2023-07-20T00:32:38;22.60;80.00
56103;DHT22;41970;48.774;9.280;2023-07-20T00:35:04;22.60;80.20
56103;DHT22;41970;48.774;9.280;2023-07-20T00:37:30;22.60;79.80
56103;DHT22;41970;48.774;9.280;2023-07-20T00:39:56;22.50;79.80
56103;DHT22;41970;48.774;9.280;2023-07-20T00:42:22;22.60;78.70
56103;DHT22;41970;48.774;9.280;2023-07-20T00:44:48;22.50;77.60
56103;DHT22;41970;48.774;9.280;2023-07-20T00:47:13;22.50;76.40
56103;DHT22;41970;48.774;9.280;2023-07-20T00:49:39;22.40;76.80
56103;DHT22;41970;48.774;9.280;2023-07-20T00:52:07;22.30;76.10
56103;DHT22;41970;48.774;9.280;2023-07-20T00:54:33;22.20;75.50
56103;DHT22;41970;48.774;9.280;2023-07-20T00:57:01;22.10;75.80
56103;DHT22;41970;48.774;9.280;2023-07-20T00:59:27;22.10;75.70
56103;DHT22;41970;48.774;9.280;2023-07-20T01:01:52;22.10;76.30
56103;DHT22;41970;48.774;9.280;2023-07-20T01:04:19;22.10;75.90
56103;DHT22;41970;48.774;9.280;2023-07-20T01:12:08;22.10;75.60
56103;DHT22;41970;48.774;9.280;2023-07-20T01:14:35;22.10;75.80
56103;DHT22;41970;48.774;9.280;2023-07-20T01:17:02;22.10;76.60
56103;DHT22;41970;48.774;9.280;2023-07-20T01:19:28;22.00;75.50
56103;DHT22;41970;48.774;9.280;2023-07-20T01:22:00;21.90;75.80
56103;DHT22;41970;48.774;9.280;2023-07-20T01:27:31;21.90;77.80
56103;DHT22;41970;48.774;9.280;2023-07-20T01:32:48;21.80;76.80
56103;DHT22;41970;48.774;9.280;2023-07-20T01:35:16;21.70;77.00
56103;DHT22;41970;48.774;9.280;2023-07-20T01:37:45;21.60;77.50
56103;DHT22;41970;48.774;9.280;2023-07-20T01:40:13;21.50;78.20
56103;DHT22;41970;48.774;9.280;2023-07-20T01:42:46;21.50;78.70
56103;DHT22;41970;48.774;9.280;2023-07-20T01:45:12;21.40;79.00
56103;DHT22;41970;48.774;9.280;2023-07-20T01:47:38;21.30;79.00
56103;DHT22;41970;48.774;9.280;2023-07-20T01:50:04;21.20;79.70
56103;DHT22;41970;48.774;9.280;2023-07-20T01:52:30;21.10;79.60
56103;DHT22;41970;48.774;9.280;2023-07-20T01:54:56;21.00;80.80
56103;DHT22;41970;48.774;9.280;2023-07-20T01:57:22;20.70;81.70
56103;DHT22;41970;48.774;9.280;2023-07-20T01:59:48;20.30;82.70
56103;DHT22;41970;48.774;9.280;2023-07-20T02:02:13;20.00;83.90
56103;DHT22;41970;48.774;9.280;2023-07-20T02:04:39;19.80;84.60
56103;DHT22;41970;48.774;9.280;2023-07-20T02:07:05;19.50;85.50
56103;DHT22;41970;48.774;9.280;2023-07-20T02:09:31;19.40;86.60
56103;DHT22;41970;48.774;9.280;2023-07-20T02:11:56;19.30;87.10
56103;DHT22;41970;48.774;9.280;2023-07-20T02:14:22;19.30;87.10
56103;DHT22;41970;48.774;9.280;2023-07-20T02:16:48;19.10;87.70
56103;DHT22;41970;48.774;9.280;2023-07-20T02:19:20;19.10;87.50
56103;DHT22;41970;48.774;9.280;2023-07-20T02:21:47;19.00;88.40
56103;DHT22;41970;48.774;9.280;2023-07-20T02:24:13;18.90;89.00
56103;DHT22;41970;48.774;9.280;2023-07-20T02:26:38;18.80;88.90
56103;DHT22;41970;48.774;9.280;2023-07-20T02:29:04;18.60;90.00
56103;DHT22;41970;48.774;9.280;2023-07-20T02:31:31;18.40;90.20
56103;DHT22;41970;48.774;9.280;2023-07-20T02:33:57;18.30;90.70
56103;DHT22;41970;48.774;9.280;2023-07-20T02:36:23;18.30;90.80
56103;DHT22;41970;48.774;9.280;2023-07-20T02:38:48;18.20;91.00
56103;DHT22;41970;48.774;9.280;2023-07-20T02:41:14;18.20;91.20
56103;DHT22;41970;48.774;9.280;2023-07-20T02:43:40;18.30;91.10
56103;DHT22;41970;48.774;9.280;2023-07-20T02:46:06;18.20;91.40
56103;DHT22;41970;48.774;9.280;2023-07-20T02:48:31;18.10;91.50
56103;DHT22;41970;48.774;9.280;2023-07-20T02:50:57;18.10;91.70
56103;DHT22;41970;48.774;9.280;2023-07-20T02:53:23;18.10;91.80
56103;DHT22;41970;48.774;9.280;2023-07-20T02:55:48;18.20;91.80
56103;DHT22;41970;48.774;9.280;2023-07-20T02:58:15;18.20;91.70
56103;DHT22;41970;48.774;9.280;2023-07-20T03:00:42;18.20;91.90
56103;DHT22;41970;48.774;9.280;2023-07-20T03:03:09;18.30;91.90
56103;DHT22;41970;48.774;9.280;2023-07-20T03:05:36;18.20;92.00
56103;DHT22;41970;48.774;9.280;2023-07-20T03:08:03;18.10;92.20
56103;DHT22;41970;48.774;9.280;2023-07-20T03:10:32;18.10;92.40
56103;DHT22;41970;48.774;9.280;2023-07-20T03:12:58;18.00;92.40
56103;DHT22;41970;48.774;9.280;2023-07-20T03:15:24;18.00;92.50
56103;DHT22;41970;48.774;9.280;2023-07-20T03:17:50;18.00;92.70
56103;DHT22;41970;48.774;9.280;2023-07-20T03:20:17;17.80;92.90
56103;DHT22;41970;48.774;9.280;2023-07-20T03:22:42;17.70;93.10
56103;DHT22;41970;48.774;9.280;2023-07-20T03:25:08;17.70;93.30
56103;DHT22;41970;48.774;9.280;2023-07-20T03:27:34;17.70;93.40
56103;DHT22;41970;48.774;9.280;2023-07-20T03:30:00;17.70;93.40
56103;DHT22;41970;48.774;9.280;2023-07-20T03:32:26;17.90;93.30
56103;DHT22;41970;48.774;9.280;2023-07-20T03:34:52;17.90;93.10
56103;DHT22;41970;48.774;9.280;2023-07-20T03:37:17;17.60;93.60
56103;DHT22;41970;48.774;9.280;2023-07-20T03:39:43;17.40;94.00
56103;DHT22;41970;48.774;9.280;2023-07-20T03:42:09;17.30;94.30
56103;DHT22;41970;48.774;9.280;2023-07-20T03:44:34;17.20;94.50
56103;DHT22;41970;48.774;9.280;2023-07-20T03:47:00;17.20;94.60
56103;DHT22;41970;48.774;9.280;2023-07-20T03:49:26;16.90;94.80
56103;DHT22;41970;48.774;9.280;2023-07-20T03:51:52;16.90;95.20
56103;DHT22;41970;48.774;9.280;2023-07-20T03:54:18;16.90;95.30
56103;DHT22;41970;48.774;9.280;2023-07-20T03:56:44;17.00;95.50
56103;DHT22;41970;48.774;9.280;2023-07-20T03:59:10;17.00;95.40
56103;DHT22;41970;48.774;9.280;2023-07-20T04:01:36;17.10;95.60
56103;DHT22;41970;48.774;9.280;2023-07-20T04:04:05;17.20;95.50
56103;DHT22;41970;48.774;9.280;2023-07-20T04:06:31;17.30;95.50
56103;DHT22;41970;48.774;9.280;2023-07-20T04:08:57;17.30;95.50
56103;DHT22;41970;48.774;9.280;2023-07-20T04:11:23;17.30;95.50
56103;DHT22;41970;48.774;9.280;2023-07-20T04:13:49;17.30;95.60
56103;DHT22;41970;48.774;9.280;2023-07-20T04:16:14;17.30;96.10
56103;DHT22;41970;48.774;9.280;2023-07-20T04:18:40;17.50;95.80
56103;DHT22;41970;48.774;9.280;2023-07-20T04:21:08;17.60;95.60
56103;DHT22;41970;48.774;9.280;2023-07-20T04:23:34;17.70;95.40
56103;DHT22;41970;48.774;9.280;2023-07-20T04:26:01;17.80;95.40
56103;DHT22;41970;48.774;9.280;2023-07-20T04:28:27;17.90;95.20
56103;DHT22;41970;48.774;9.280;2023-07-20T04:30:53;18.00;95.20
56103;DHT22;41970;48.774;9.280;2023-07-20T04:33:19;18.00;95.30
56103;DHT22;41970;48.774;9.280;2023-07-20T04:35:52;18.00;95.40
56103;DHT22;41970;48.774;9.280;2023-07-20T04:38:19;18.10;95.40
56103;DHT22;41970;48.774;9.280;2023-07-20T04:40:46;18.10;95.40
56103;DHT22;41970;48.774;9.280;2023-07-20T04:43:14;18.10;95.40
56103;DHT22;41970;48.774;9.280;2023-07-20T04:45:40;18.10;95.60
56103;DHT22;41970;48.774;9.280;2023-07-20T04:48:11;18.10;95.50
56103;DHT22;41970;48.774;9.280;2023-07-20T04:50:43;18.10;95.80
56103;DHT22;41970;48.774;9.280;2023-07-20T04:53:10;18.10;96.00
56103;DHT22;41970;48.774;9.280;2023-07-20T04:55:38;18.20;96.10
56103;DHT22;41970;48.774;9.280;2023-07-20T04:58:05;18.20;96.00
56103;DHT22;41970;48.774;9.280;2023-07-20T05:00:35;18.20;96.30
56103;DHT22;41970;48.774;9.280;2023-07-20T05:03:01;18.40;95.90
56103;DHT22;41970;48.774;9.280;2023-07-20T05:05:28;18.40;95.90
56103;DHT22;41970;48.774;9.280;2023-07-20T05:07:53;18.40;96.00
56103;DHT22;41970;48.774;9.280;2023-07-20T05:10:20;18.60;96.10
56103;DHT22;41970;48.774;9.280;2023-07-20T05:12:45;18.60;95.70
56103;DHT22;41970;48.774;9.280;2023-07-20T05:15:11;18.70;95.90
56103;DHT22;41970;48.774;9.280;2023-07-20T05:17:37;18.70;95.80
56103;DHT22;41970;48.774;9.280;2023-07-20T05:20:03;18.90;95.50
56103;DHT22;41970;48.774;9.280;2023-07-20T05:22:30;19.00;95.50
56103;DHT22;41970;48.774;9.280;2023-07-20T05:24:55;19.10;95.30
56103;DHT22;41970;48.774;9.280;2023-07-20T05:27:21;19.10;93.90
56103;DHT22;41970;48.774;9.280;2023-07-20T05:29:48;19.20;94.00
56103;DHT22;41970;48.774;9.280;2023-07-20T05:32:14;19.30;93.70
56103;DHT22;41970;48.774;9.280;2023-07-20T05:34:40;19.40;93.80
56103;DHT22;41970;48.774;9.280;2023-07-20T05:37:06;19.50;93.30
56103;DHT22;41970;48.774;9.280;2023-07-20T05:39:35;19.60;93.30
56103;DHT22;41970;48.774;9.280;2023-07-20T05:42:01;19.70;93.00
56103;DHT22;41970;48.774;9.280;2023-07-20T05:44:26;19.70;92.50
56103;DHT22;41970;48.774;9.280;2023-07-20T05:46:52;19.80;92.30
56103;DHT22;41970;48.774;9.280;2023-07-20T05:49:18;20.00;91.90
56103;DHT22;41970;48.774;9.280;2023-07-20T05:51:44;20.00;92.20
56103;DHT22;41970;48.774;9.280;2023-07-20T05:54:09;20.00;92.10
56103;DHT22;41970;48.774;9.280;2023-07-20T05:56:36;20.10;92.40
56103;DHT22;41970;48.774;9.280;2023-07-20T05:59:01;20.10;92.00
56103;DHT22;41970;48.774;9.280;2023-07-20T06:01:27;20.20;92.10
56103;DHT22;41970;48.774;9.280;2023-07-20T06:03:53;20.10;92.30
56103;DHT22;41970;48.774;9.280;2023-07-20T06:06:19;20.20;92.70
56103;DHT22;41970;48.774;9.280;2023-07-20T06:08:46;20.20;91.70
56103;DHT22;41970;48.774;9.280;2023-07-20T06:11:12;20.10;92.50
56103;DHT22;41970;48.774;9.280;2023-07-20T06:13:37;20.10;92.40
56103;DHT22;41970;48.774;9.280;2023-07-20T06:16:04;20.20;92.50
56103;DHT22;41970;48.774;9.280;2023-07-20T06:18:29;20.20;92.10
56103;DHT22;41970;48.774;9.280;2023-07-20T06:20:58;20.20;92.20
56103;DHT22;41970;48.774;9.280;2023-07-20T06:23:24;20.10;92.50
56103;DHT22;41970;48.774;9.280;2023-07-20T06:25:49;20.20;92.50
56103;DHT22;41970;48.774;9.280;2023-07-20T06:28:15;20.30;92.60
56103;DHT22;41970;48.774;9.280;2023-07-20T06:30:41;20.40;92.50
56103;DHT22;41970;48.774;9.280;2023-07-20T06:33:07;20.60;92.20
56103;DHT22;41970;48.774;9.280;2023-07-20T06:35:34;20.70;91.70
56103;DHT22;41970;48.774;9.280;2023-07-20T06:38:00;20.80;91.40
56103;DHT22;41970;48.774;9.280;2023-07-20T06:40:26;20.90;91.30
56103;DHT22;41970;48.774;9.280;2023-07-20T06:42:52;20.90;91.60
56103;DHT22;41970;48.774;9.280;2023-07-20T06:45:18;20.90;91.50
56103;DHT22;41970;48.774;9.280;2023-07-20T06:47:43;21.00;91.20
56103;DHT22;41970;48.774;9.280;2023-07-20T06:50:10;21.10;91.10
56103;DHT22;41970;48.774;9.280;2023-07-20T06:52:36;21.20;91.00
56103;DHT22;41970;48.774;9.280;2023-07-20T06:55:03;21.50;90.70
56103;DHT22;41970;48.774;9.280;2023-07-20T06:57:28;21.60;90.70
56103;DHT22;41970;48.774;9.280;2023-07-20T06:59:54;21.70;90.30
56103;DHT22;41970;48.774;9.280;2023-07-20T07:02:20;21.70;90.60
56103;DHT22;41970;48.774;9.280;2023-07-20T07:04:46;22.00;90.40
56103;DHT22;41970;48.774;9.280;2023-07-20T07:07:14;22.10;90.20
56103;DHT22;41970;48.774;9.280;2023-07-20T07:09:41;22.40;90.30
56103;DHT22;41970;48.774;9.280;2023-07-20T07:12:07;22.60;90.00
56103;DHT22;41970;48.774;9.280;2023-07-20T07:14:33;22.90;89.40
56103;DHT22;41970;48.774;9.280;2023-07-20T07:16:59;22.90;89.20
56103;DHT22;41970;48.774;9.280;2023-07-20T07:19:24;22.90;88.60
56103;DHT22;41970;48.774;9.280;2023-07-20T07:21:50;23.20;88.50
56103;DHT22;41970;48.774;9.280;2023-07-20T07:24:16;23.20;87.10
56103;DHT22;41970;48.774;9.280;2023-07-20T07:26:42;23.20;88.10
56103;DHT22;41970;48.774;9.280;2023-07-20T07:29:08;23.20;87.60
56103;DHT22;41970;48.774;9.280;2023-07-20T07:31:37;23.20;87.00
56103;DHT22;41970;48.774;9.280;2023-07-20T07:34:04;23.30;87.10
56103;DHT22;41970;48.774;9.280;2023-07-20T07:36:31;23.50;86.70
56103;DHT22;41970;48.774;9.280;2023-07-20T07:38:57;23.70;86.30
56103;DHT22;41970;48.774;9.280;2023-07-20T07:41:23;23.80;85.80
56103;DHT22;41970;48.774;9.280;2023-07-20T07:43:49;24.10;85.20
56103;DHT22;41970;48.774;9.280;2023-07-20T07:46:14;24.30;83.80
56103;DHT22;41970;48.774;9.280;2023-07-20T07:48:41;24.50;83.50
56103;DHT22;41970;48.774;9.280;2023-07-20T07:51:07;24.60;83.10
56103;DHT22;41970;48.774;9.280;2023-07-20T07:53:33;24.80;84.10
56103;DHT22;41970;48.774;9.280;2023-07-20T07:56:01;25.10;81.60
56103;DHT22;41970;48.774;9.280;2023-07-20T07:58:28;25.30;81.20
56103;DHT22;41970;48.774;9.280;2023-07-20T08:00:54;25.40;78.80
56103;DHT22;41970;48.774;9.280;2023-07-20T08:03:20;25.50;80.00
56103;DHT22;41970;48.774;9.280;2023-07-20T08:05:47;25.60;79.60
56103;DHT22;41970;48.774;9.280;2023-07-20T08:08:12;25.50;79.50
56103;DHT22;41970;48.774;9.280;2023-07-20T08:10:38;25.60;79.40
56103;DHT22;41970;48.774;9.280;2023-07-20T08:13:04;25.80;78.60
56103;DHT22;41970;48.774;9.280;2023-07-20T08:15:30;25.90;77.10
56103;DHT22;41970;48.774;9.280;2023-07-20T08:17:55;25.90;78.40
56103;DHT22;41970;48.774;9.280;2023-07-20T08:20:22;26.10;78.30
56103;DHT22;41970;48.774;9.280;2023-07-20T08:22:53;26.40;76.50
56103;DHT22;41970;48.774;9.280;2023-07-20T08:25:19;26.50;75.00
56103;DHT22;41970;48.774;9.280;2023-07-20T08:27:45;26.50;74.30
56103;DHT22;41970;48.774;9.280;2023-07-20T08:30:13;26.50;74.90
56103;DHT22;41970;48.774;9.280;2023-07-20T08:32:39;26.20;73.60
56103;DHT22;41970;48.774;9.280;2023-07-20T08:35:05;25.90;73.90
56103;DHT22;41970;48.774;9.280;2023-07-20T08:37:31;25.80;74.70
56103;DHT22;41970;48.774;9.280;2023-07-20T08:39:57;25.70;74.00
56103;DHT22;41970;48.774;9.280;2023-07-20T08:42:23;25.70;74.60
56103;DHT22;41970;48.774;9.280;2023-07-20T08:44:50;25.70;73.60
56103;DHT22;41970;48.774;9.280;2023-07-20T08:47:18;25.60;74.60
56103;DHT22;41970;48.774;9.280;2023-07-20T08:49:48;25.40;75.60
56103;DHT22;41970;48.774;9.280;2023-07-20T08:52:14;25.20;76.60
56103;DHT22;41970;48.774;9.280;2023-07-20T08:54:40;25.10;76.80
56103;DHT22;41970;48.774;9.280;2023-07-20T08:57:06;24.90;77.30
56103;DHT22;41970;48.774;9.280;2023-07-20T08:59:34;24.70;77.80
56103;DHT22;41970;48.774;9.280;2023-07-20T09:02:02;24.60;76.70
56103;DHT22;41970;48.774;9.280;2023-07-20T09:04:30;24.50;78.90
56103;DHT22;41970;48.774;9.280;2023-07-20T09:06:57;24.50;76.50
56103;DHT22;41970;48.774;9.280;2023-07-20T09:09:22;24.60;74.60
56103;DHT22;41970;48.774;9.280;2023-07-20T09:11:51;24.50;74.60
56103;DHT22;41970;48.774;9.280;2023-07-20T09:14:17;24.40;75.50
56103;DHT22;41970;48.774;9.280;2023-07-20T09:16:50;24.40;75.90
56103;DHT22;41970;48.774;9.280;2023-07-20T09:19:16;24.50;77.70
56103;DHT22;41970;48.774;9.280;2023-07-20T09:21:47;24.50;76.50
56103;DHT22;41970;48.774;9.280;2023-07-20T09:24:14;24.80;76.30
56103;DHT22;41970;48.774;9.280;2023-07-20T09:26:44;25.10;75.60
56103;DHT22;41970;48.774;9.280;2023-07-20T09:29:10;25.40;75.00
56103;DHT22;41970;48.774;9.280;2023-07-20T09:31:36;25.60;73.40
56103;DHT22;41970;48.774;9.280;2023-07-20T09:34:02;25.70;74.90
56103;DHT22;41970;48.774;9.280;2023-07-20T09:36:36;25.70;73.70
56103;DHT22;41970;48.774;9.280;2023-07-20T09:39:03;25.60;73.80
56103;DHT22;41970;48.774;9.280;2023-07-20T09:41:29;25.60;73.60
56103;DHT22;41970;48.774;9.280;2023-07-20T09:43:55;25.30;73.50
56103;DHT22;41970;48.774;9.280;2023-07-20T09:46:21;25.10;74.20
56103;DHT22;41970;48.774;9.280;2023-07-20T09:48:53;25.00;72.80
56103;DHT22;41970;48.774;9.280;2023-07-20T09:51:22;25.00;74.10
56103;DHT22;41970;48.774;9.280;2023-07-20T09:53:49;25.00;73.10
56103;DHT22;41970;48.774;9.280;2023-07-20T09:56:21;24.90;73.50
56103;DHT22;41970;48.774;9.280;2023-07-20T09:58:49;24.80;73.50
56103;DHT22;41970;48.774;9.280;2023-07-20T10:01:19;24.70;73.70
56103;DHT22;41970;48.774;9.280;2023-07-20T10:03:47;24.50;72.90
56103;DHT22;41970;48.774;9.280;2023-07-20T10:06:19;24.40;74.10
56103;DHT22;41970;48.774;9.280;2023-07-20T10:08:47;24.40;73.80
56103;DHT22;41970;48.774;9.280;2023-07-20T10:11:15;24.40;75.80
56103;DHT22;41970;48.774;9.280;2023-07-20T10:13:43;24.50;74.30
56103;DHT22;41970;48.774;9.280;2023-07-20T10:16:11;24.70;73.10
56103;DHT22;41970;48.774;9.280;2023-07-20T10:18:50;24.90;71.60
56103;DHT22;41970;48.774;9.280;2023-07-20T10:21:21;25.10;73.00
56103;DHT22;41970;48.774;9.280;2023-07-20T10:23:50;25.30;73.50
56103;DHT22;41970;48.774;9.280;2023-07-20T10:26:15;25.50;71.20
56103;DHT22;41970;48.774;9.280;2023-07-20T10:28:41;25.40;71.40
56103;DHT22;41970;48.774;9.280;2023-07-20T10:31:12;25.20;71.00
56103;DHT22;41970;48.774;9.280;2023-07-20T10:33:38;25.10;71.10
56103;DHT22;41970;48.774;9.280;2023-07-20T10:36:05;24.90;70.40
56103;DHT22;41970;48.774;9.280;2023-07-20T10:38:57;25.00;70.40
56103;DHT22;41970;48.774;9.280;2023-07-20T10:41:27;24.90;70.60
56103;DHT22;41970;48.774;9.280;2023-07-20T10:44:04;25.00;71.10
56103;DHT22;41970;48.774;9.280;2023-07-20T10:49:08;25.20;71.20
56103;DHT22;41970;48.774;9.280;2023-07-20T10:51:48;25.30;71.60
56103;DHT22;41970;48.774;9.280;2023-07-20T10:56:49;25.60;69.10
56103;DHT22;41970;48.774;9.280;2023-07-20T10:59:20;25.70;67.20
56103;DHT22;41970;48.774;9.280;2023-07-20T11:01:47;25.70;66.10
56103;DHT22;41970;48.774;9.280;2023-07-20T11:04:15;25.60;66.80
56103;DHT22;41970;48.774;9.280;2023-07-20T11:06:44;25.60;68.20
56103;DHT22;41970;48.774;9.280;2023-07-20T11:09:12;25.50;67.00
56103;DHT22;41970;48.774;9.280;2023-07-20T11:11:48;25.50;67.00
56103;DHT22;41970;48.774;9.280;2023-07-20T11:14:25;25.60;66.00
56103;DHT22;41970;48.774;9.280;2023-07-20T11:16:52;25.60;67.50
56103;DHT22;41970;48.774;9.280;2023-07-20T11:19:23;25.60;68.10
56103;DHT22;41970;48.774;9.280;2023-07-20T11:21:58;25.50;65.90
56103;DHT22;41970;48.774;9.280;2023-07-20T11:24:24;25.40;65.80
56103;DHT22;41970;48.774;9.280;2023-07-20T11:26:52;25.40;66.10
56103;DHT22;41970;48.774;9.280;2023-07-20T11:29:20;25.40;64.60
56103;DHT22;41970;48.774;9.280;2023-07-20T11:31:46;25.40;67.30
56103;DHT22;41970;48.774;9.280;2023-07-20T11:34:17;25.30;66.70
56103;DHT22;41970;48.774;9.280;2023-07-20T11:36:52;25.30;65.70
56103;DHT22;41970;48.774;9.280;2023-07-20T11:39:19;25.30;66.00
56103;DHT22;41970;48.774;9.280;2023-07-20T11:41:50;25.30;65.70
56103;DHT22;41970;48.774;9.280;2023-07-20T11:44:24;25.40;65.60
56103;DHT22;41970;48.774;9.280;2023-07-20T11:47:10;25.50;65.00
56103;DHT22;41970;48.774;9.280;2023-07-20T11:49:37;25.50;64.30
56103;DHT22;41970;48.774;9.280;2023-07-20T11:52:07;25.50;62.90
56103;DHT22;41970;48.774;9.280;2023-07-20T11:54:41;25.60;63.40
56103;DHT22;41970;48.774;9.280;2023-07-20T11:57:06;25.70;64.00
56103;DHT22;41970;48.774;9.280;2023-07-20T11:59:33;25.70;62.90
56103;DHT22;41970;48.774;9.280;2023-07-20T12:02:01;25.70;65.80
56103;DHT22;41970;48.774;9.280;2023-07-20T12:04:28;25.80;62.40
56103;DHT22;41970;48.774;9.280;2023-07-20T12:06:54;25.90;62.10
56103;DHT22;41970;48.774;9.280;2023-07-20T12:09:23;26.00;61.50
56103;DHT22;41970;48.774;9.280;2023-07-20T12:11:50;26.00;62.10
56103;DHT22;41970;48.774;9.280;2023-07-20T12:14:16;26.10;62.50
56103;DHT22;41970;48.774;9.280;2023-07-20T12:16:42;26.10;60.50
56103;DHT22;41970;48.774;9.280;2023-07-20T12:19:10;26.20;61.60
56103;DHT22;41970;48.774;9.280;2023-07-20T12:21:39;26.20;61.00
56103;DHT22;41970;48.774;9.280;2023-07-20T12:24:06;26.20;62.10
56103;DHT22;41970;48.774;9.280;2023-07-20T12:26:33;26.20;60.00
56103;DHT22;41970;48.774;9.280;2023-07-20T12:29:00;26.20;59.60
56103;DHT22;41970;48.774;9.280;2023-07-20T12:31:26;26.30;61.30
56103;DHT22;41970;48.774;9.280;2023-07-20T12:33:53;26.20;60.80
56103;DHT22;41970;48.774;9.280;2023-07-20T12:36:21;26.30;59.20
56103;DHT22;41970;48.774;9.280;2023-07-20T12:38:47;26.40;59.30
56103;DHT22;41970;48.774;9.280;2023-07-20T12:41:13;26.40;60.00
56103;DHT22;41970;48.774;9.280;2023-07-20T12:43:43;26.40;59.40
56103;DHT22;41970;48.774;9.280;2023-07-20T12:46:11;26.40;60.30
56103;DHT22;41970;48.774;9.280;2023-07-20T12:48:40;26.40;59.30
56103;DHT22;41970;48.774;9.280;2023-07-20T12:51:08;26.60;59.60
56103;DHT22;41970;48.774;9.280;2023-07-20T12:53:34;26.70;59.60
56103;DHT22;41970;48.774;9.280;2023-07-20T12:56:00;26.70;60.30
56103;DHT22;41970;48.774;9.280;2023-07-20T12:58:26;26.60;60.70
56103;DHT22;41970;48.774;9.280;2023-07-20T13:00:52;26.50;59.90
56103;DHT22;41970;48.774;9.280;2023-07-20T13:03:19;26.40;58.40
56103;DHT22;41970;48.774;9.280;2023-07-20T13:05:45;26.40;58.60
56103;DHT22;41970;48.774;9.280;2023-07-20T13:08:11;26.40;59.20
56103;DHT22;41970;48.774;9.280;2023-07-20T13:10:37;26.30;59.00
56103;DHT22;41970;48.774;9.280;2023-07-20T13:13:04;26.40;59.10
56103;DHT22;41970;48.774;9.280;2023-07-20T13:15:31;26.40;59.10
56103;DHT22;41970;48.774;9.280;2023-07-20T13:17:58;26.40;58.70
56103;DHT22;41970;48.774;9.280;2023-07-20T13:20:25;26.50;58.80
56103;DHT22;41970;48.774;9.280;2023-07-20T13:22:51;26.70;59.50
56103;DHT22;41970;48.774;9.280;2023-07-20T13:25:17;26.60;58.80
56103;DHT22;41970;48.774;9.280;2023-07-20T13:27:44;26.60;58.20
56103;DHT22;41970;48.774;9.280;2023-07-20T13:30:10;26.60;59.00
56103;DHT22;41970;48.774;9.280;2023-07-20T13:32:45;26.70;57.80
56103;DHT22;41970;48.774;9.280;2023-07-20T13:35:14;26.80;57.50
56103;DHT22;41970;48.774;9.280;2023-07-20T13:37:40;26.70;57.10
56103;DHT22;41970;48.774;9.280;2023-07-20T13:40:07;26.70;58.10
56103;DHT22;41970;48.774;9.280;2023-07-20T13:42:34;26.80;57.80
56103;DHT22;41970;48.774;9.280;2023-07-20T13:45:00;26.80;57.30
56103;DHT22;41970;48.774;9.280;2023-07-20T13:47:26;26.70;56.60
56103;DHT22;41970;48.774;9.280;2023-07-20T13:49:52;26.40;57.70
56103;DHT22;41970;48.774;9.280;2023-07-20T13:52:18;26.40;57.80
56103;DHT22;41970;48.774;9.280;2023-07-20T13:54:44;26.50;57.30
56103;DHT22;41970;48.774;9.280;2023-07-20T13:57:09;26.60;57.80
56103;DHT22;41970;48.774;9.280;2023-07-20T13:59:35;26.80;57.60
56103;DHT22;41970;48.774;9.280;2023-07-20T14:02:01;26.90;57.00
56103;DHT22;41970;48.774;9.280;2023-07-20T14:04:27;26.90;56.70
56103;DHT22;41970;48.774;9.280;2023-07-20T14:06:52;26.90;57.10
56103;DHT22;41970;48.774;9.280;2023-07-20T14:09:18;26.80;57.20
56103;DHT22;41970;48.774;9.280;2023-07-20T14:11:44;26.70;57.40
56103;DHT22;41970;48.774;9.280;2023-07-20T14:14:10;26.70;56.50
56103;DHT22;41970;48.774;9.280;2023-07-20T14:16:37;26.80;58.00
56103;DHT22;41970;48.774;9.280;2023-07-20T14:19:03;26.80;58.40
56103;DHT22;41970;48.774;9.280;2023-07-20T14:21:30;26.80;55.90
56103;DHT22;41970;48.774;9.280;2023-07-20T14:23:56;26.70;57.90
56103;DHT22;41970;48.774;9.280;2023-07-20T14:26:23;26.80;56.20
56103;DHT22;41970;48.774;9.280;2023-07-20T14:28:49;26.90;56.90
56103;DHT22;41970;48.774;9.280;2023-07-20T14:31:15;27.00;56.30
56103;DHT22;41970;48.774;9.280;2023-07-20T14:33:41;27.10;55.90
56103;DHT22;41970;48.774;9.280;2023-07-20T14:36:07;27.10;55.50
56103;DHT22;41970;48.774;9.280;2023-07-20T14:38:34;27.20;55.50
56103;DHT22;41970;48.774;9.280;2023-07-20T14:40:59;27.10;56.60
56103;DHT22;41970;48.774;9.280;2023-07-20T14:43:25;27.10;55.80
56103;DHT22;41970;48.774;9.280;2023-07-20T14:45:51;27.10;55.20
56103;DHT22;41970;48.774;9.280;2023-07-20T14:48:17;27.30;55.20
56103;DHT22;41970;48.774;9.280;2023-07-20T14:50:43;27.40;55.60
56103;DHT22;41970;48.774;9.280;2023-07-20T14:53:12;27.30;54.60
56103;DHT22;41970;48.774;9.280;2023-07-20T14:55:38;27.40;55.50
56103;DHT22;41970;48.774;9.280;2023-07-20T14:58:04;27.40;54.40
56103;DHT22;41970;48.774;9.280;2023-07-20T15:00:29;27.40;54.30
56103;DHT22;41970;48.774;9.280;2023-07-20T15:02:56;27.40;54.70
56103;DHT22;41970;48.774;9.280;2023-07-20T15:05:23;27.40;54.40
56103;DHT22;41970;48.774;9.280;2023-07-20T15:07:49;27.50;54.10
56103;DHT22;41970;48.774;9.280;2023-07-20T15:10:15;27.50;54.50
56103;DHT22;41970;48.774;9.280;2023-07-20T15:12:41;27.60;54.20
56103;DHT22;41970;48.774;9.280;2023-07-20T15:15:09;27.70;53.30
56103;DHT22;41970;48.774;9.280;2023-07-20T15:17:36;27.60;53.10
56103;DHT22;41970;48.774;9.280;2023-07-20T15:20:04;27.60;54.00
56103;DHT22;41970;48.774;9.280;2023-07-20T15:22:31;27.70;52.90
56103;DHT22;41970;48.774;9.280;2023-07-20T15:24:57;27.60;53.60
56103;DHT22;41970;48.774;9.280;2023-07-20T15:27:23;27.50;53.10
56103;DHT22;41970;48.774;9.280;2023-07-20T15:29:49;27.40;53.50
56103;DHT22;41970;48.774;9.280;2023-07-20T15:32:19;27.40;53.00
56103;DHT22;41970;48.774;9.280;2023-07-20T15:34:45;27.40;53.70
56103;DHT22;41970;48.774;9.280;2023-07-20T15:37:11;27.40;53.70
56103;DHT22;41970;48.774;9.280;2023-07-20T15:39:37;27.30;54.20
56103;DHT22;41970;48.774;9.280;2023-07-20T15:42:04;27.30;53.60
56103;DHT22;41970;48.774;9.280;2023-07-20T15:44:30;27.30;54.30